sensor_id;sensor_type;location;lat;lon;timestamp;temperature;humidity
2439;DHT22;14509;47.992;7.848;2023-04-24T00:00:32;16.50;51.40
2439;DHT22;14509;47.992;7.848;2023-04-24T00:02:34;16.60;51.40
2439;DHT22;14509;47.992;7.848;2023-04-24T00:04:38;16.60;51.40
2439;DHT22;14509;47.992;7.848;2023-04-24T00:06:41;16.60;51.30
2439;DHT22;14509;47.992;7.848;2023-04-24T00:08:43;16.70;51.30
2439;DHT22;14509;47.992;7.848;2023-04-24T00:10:46;16.70;51.10
2439;DHT22;14509;47.992;7.848;2023-04-24T00:12:48;16.70;50.90
2439;DHT22;14509;47.992;7.848;2023-04-24T00:14:50;16.60;51.60
2439;DHT22;14509;47.992;7.848;2023-04-24T00:16:52;16.50;51.30
2439;DHT22;14509;47.992;7.848;2023-04-24T00:18:54;16.50;51.40
2439;DHT22;14509;47.992;7.848;2023-04-24T00:20:56;16.60;51.30
2439;DHT22;14509;47.992;7.848;2023-04-24T00:22:59;16.60;51.20
2439;DHT22;14509;47.992;7.848;2023-04-24T00:25:01;17.10;51.30
2439;DHT22;14509;47.992;7.848;2023-04-24T00:27:05;16.80;50.90
2439;DHT22;14509;47.992;7.848;2023-04-24T00:29:07;16.70;50.70
2439;DHT22;14509;47.992;7.848;2023-04-24T00:31:09;16.70;50.50
2439;DHT22;14509;47.992;7.848;2023-04-24T00:33:11;16.70;50.60
2439;DHT22;14509;47.992;7.848;2023-04-24T00:35:13;16.70;50.50
2439;DHT22;14509;47.992;7.848;2023-04-24T00:37:17;16.60;50.50
2439;DHT22;14509;47.992;7.848;2023-04-24T00:39:19;16.90;50.90
2439;DHT22;14509;47.992;7.848;2023-04-24T00:41:21;16.60;50.70
2439;DHT22;14509;47.992;7.848;2023-04-24T00:43:25;16.50;50.70
2439;DHT22;14509;47.992;7.848;2023-04-24T00:45:28;16.70;50.90
2439;DHT22;14509;47.992;7.848;2023-04-24T00:47:32;16.40;50.90
2439;DHT22;14509;47.992;7.848;2023-04-24T00:49:35;16.50;51.00
2439;DHT22;14509;47.992;7.848;2023-04-24T00:51:37;16.50;50.80
2439;DHT22;14509;47.992;7.848;2023-04-24T00:53:39;16.60;50.80
2439;DHT22;14509;47.992;7.848;2023-04-24T00:55:41;16.60;51.10
2439;DHT22;14509;47.992;7.848;2023-04-24T00:57:43;16.60;50.80
2439;DHT22;14509;47.992;7.848;2023-04-24T00:59:47;16.50;50.80
2439;DHT22;14509;47.992;7.848;2023-04-24T01:01:49;16.50;50.80
2439;DHT22;14509;47.992;7.848;2023-04-24T01:03:51;16.60;50.80
2439;DHT22;14509;47.992;7.848;2023-04-24T01:05:54;16.80;50.90
2439;DHT22;14509;47.992;7.848;2023-04-24T01:07:57;16.70;50.60
2439;DHT22;14509;47.992;7.848;2023-04-24T01:09:59;16.70;50.60
2439;DHT22;14509;47.992;7.848;2023-04-24T01:12:01;16.60;50.60
2439;DHT22;14509;47.992;7.848;2023-04-24T01:14:03;16.50;50.70
2439;DHT22;14509;47.992;7.848;2023-04-24T01:16:07;16.50;51.00
2439;DHT22;14509;47.992;7.848;2023-04-24T01:18:09;16.40;51.20
2439;DHT22;14509;47.992;7.848;2023-04-24T01:20:11;16.40;51.40
2439;DHT22;14509;47.992;7.848;2023-04-24T01:22:17;16.70;51.80
2439;DHT22;14509;47.992;7.848;2023-04-24T01:24:19;16.40;51.70
2439;DHT22;14509;47.992;7.848;2023-04-24T01:26:21;16.30;51.60
2439;DHT22;14509;47.992;7.848;2023-04-24T01:28:24;16.30;51.70
2439;DHT22;14509;47.992;7.848;2023-04-24T01:30:26;16.30;51.60
2439;DHT22;14509;47.992;7.848;2023-04-24T01:32:29;16.40;51.60
2439;DHT22;14509;47.992;7.848;2023-04-24T01:34:31;16.30;51.40
2439;DHT22;14509;47.992;7.848;2023-04-24T01:36:35;16.50;51.70
2439;DHT22;14509;47.992;7.848;2023-04-24T01:38:38;16.40;51.60
2439;DHT22;14509;47.992;7.848;2023-04-24T01:40:40;16.70;51.90
2439;DHT22;14509;47.992;7.848;2023-04-24T01:42:42;16.20;51.90
2439;DHT22;14509;47.992;7.848;2023-04-24T01:44:44;16.20;52.10
2439;DHT22;14509;47.992;7.848;2023-04-24T01:46:46;16.20;52.10
2439;DHT22;14509;47.992;7.848;2023-04-24T01:48:49;16.30;52.20
2439;DHT22;14509;47.992;7.848;2023-04-24T01:50:50;16.20;52.30
2439;DHT22;14509;47.992;7.848;2023-04-24T01:52:52;16.10;52.40
2439;DHT22;14509;47.992;7.848;2023-04-24T01:54:56;16.20;52.60
2439;DHT22;14509;47.992;7.848;2023-04-24T01:56:58;16.00;52.80
2439;DHT22;14509;47.992;7.848;2023-04-24T01:59:02;15.80;52.90
2439;DHT22;14509;47.992;7.848;2023-04-24T02:01:06;15.90;53.00
2439;DHT22;14509;47.992;7.848;2023-04-24T02:03:08;15.90;53.20
2439;DHT22;14509;47.992;7.848;2023-04-24T02:05:10;16.20;53.50
2439;DHT22;14509;47.992;7.848;2023-04-24T02:07:12;16.30;53.60
2439;DHT22;14509;47.992;7.848;2023-04-24T02:09:14;15.70;53.20
2439;DHT22;14509;47.992;7.848;2023-04-24T02:11:18;15.90;53.30
2439;DHT22;14509;47.992;7.848;2023-04-24T02:13:20;16.00;53.20
2439;DHT22;14509;47.992;7.848;2023-04-24T02:15:22;16.40;53.20
2439;DHT22;14509;47.992;7.848;2023-04-24T02:17:24;16.60;53.20
2439;DHT22;14509;47.992;7.848;2023-04-24T02:19:26;16.10;52.90
2439;DHT22;14509;47.992;7.848;2023-04-24T02:21:28;16.10;53.20
2439;DHT22;14509;47.992;7.848;2023-04-24T02:23:31;16.20;53.30
2439;DHT22;14509;47.992;7.848;2023-04-24T02:25:33;16.20;53.30
2439;DHT22;14509;47.992;7.848;2023-04-24T02:27:37;16.30;53.60
2439;DHT22;14509;47.992;7.848;2023-04-24T02:29:40;16.30;53.60
2439;DHT22;14509;47.992;7.848;2023-04-24T02:31:42;16.30;53.70
2439;DHT22;14509;47.992;7.848;2023-04-24T02:33:44;16.70;53.90
2439;DHT22;14509;47.992;7.848;2023-04-24T02:35:46;16.20;53.40
2439;DHT22;14509;47.992;7.848;2023-04-24T02:37:48;16.10;53.80
2439;DHT22;14509;47.992;7.848;2023-04-24T02:39:50;16.10;54.00
2439;DHT22;14509;47.992;7.848;2023-04-24T02:41:52;16.00;54.20
2439;DHT22;14509;47.992;7.848;2023-04-24T02:43:56;16.00;54.40
2439;DHT22;14509;47.992;7.848;2023-04-24T02:45:58;16.00;54.30
2439;DHT22;14509;47.992;7.848;2023-04-24T02:48:00;16.30;54.60
2439;DHT22;14509;47.992;7.848;2023-04-24T02:50:02;16.00;54.40
2439;DHT22;14509;47.992;7.848;2023-04-24T02:52:04;16.00;54.30
2439;DHT22;14509;47.992;7.848;2023-04-24T02:54:07;16.10;54.20
2439;DHT22;14509;47.992;7.848;2023-04-24T02:56:10;16.00;54.10
2439;DHT22;14509;47.992;7.848;2023-04-24T02:58:12;16.10;54.00
2439;DHT22;14509;47.992;7.848;2023-04-24T03:00:16;16.00;53.70
2439;DHT22;14509;47.992;7.848;2023-04-24T03:02:18;16.10;53.70
2439;DHT22;14509;47.992;7.848;2023-04-24T03:04:21;16.10;53.70
2439;DHT22;14509;47.992;7.848;2023-04-24T03:06:23;16.40;53.80
2439;DHT22;14509;47.992;7.848;2023-04-24T03:08:27;16.20;53.50
2439;DHT22;14509;47.992;7.848;2023-04-24T03:10:29;16.30;53.50
2439;DHT22;14509;47.992;7.848;2023-04-24T03:12:31;16.40;53.40
2439;DHT22;14509;47.992;7.848;2023-04-24T03:14:33;16.40;53.20
2439;DHT22;14509;47.992;7.848;2023-04-24T03:16:37;16.40;53.30
2439;DHT22;14509;47.992;7.848;2023-04-24T03:18:39;16.40;53.30
2439;DHT22;14509;47.992;7.848;2023-04-24T03:20:42;16.30;53.30
2439;DHT22;14509;47.992;7.848;2023-04-24T03:22:48;16.40;53.50
2439;DHT22;14509;47.992;7.848;2023-04-24T03:24:50;16.40;53.40
2439;DHT22;14509;47.992;7.848;2023-04-24T03:26:53;16.30;53.30
2439;DHT22;14509;47.992;7.848;2023-04-24T03:29:22;16.40;53.30
2439;DHT22;14509;47.992;7.848;2023-04-24T03:31:24;16.40;53.30
2439;DHT22;14509;47.992;7.848;2023-04-24T03:33:27;16.50;53.40
2439;DHT22;14509;47.992;7.848;2023-04-24T03:35:34;16.50;53.30
2439;DHT22;14509;47.992;7.848;2023-04-24T03:37:39;16.40;53.30
2439;DHT22;14509;47.992;7.848;2023-04-24T03:40:01;16.50;53.70
2439;DHT22;14509;47.992;7.848;2023-04-24T03:42:04;16.20;54.00
2439;DHT22;14509;47.992;7.848;2023-04-24T03:44:17;16.10;54.20
2439;DHT22;14509;47.992;7.848;2023-04-24T03:46:20;16.10;54.50
2439;DHT22;14509;47.992;7.848;2023-04-24T03:48:29;16.60;54.70
2439;DHT22;14509;47.992;7.848;2023-04-24T03:50:31;16.20;54.00
2439;DHT22;14509;47.992;7.848;2023-04-24T03:52:34;16.40;54.00
2439;DHT22;14509;47.992;7.848;2023-04-24T03:56:51;16.10;53.90
2439;DHT22;14509;47.992;7.848;2023-04-24T03:58:54;16.00;53.90
2439;DHT22;14509;47.992;7.848;2023-04-24T04:00:56;16.00;54.10
2439;DHT22;14509;47.992;7.848;2023-04-24T04:03:11;15.90;54.40
2439;DHT22;14509;47.992;7.848;2023-04-24T04:05:15;15.90;54.70
2439;DHT22;14509;47.992;7.848;2023-04-24T04:07:17;15.90;54.60
2439;DHT22;14509;47.992;7.848;2023-04-24T04:09:19;15.90;54.70
2439;DHT22;14509;47.992;7.848;2023-04-24T04:11:21;15.90;55.00
2439;DHT22;14509;47.992;7.848;2023-04-24T04:13:23;15.80;55.10
2439;DHT22;14509;47.992;7.848;2023-04-24T04:15:25;15.80;55.30
2439;DHT22;14509;47.992;7.848;2023-04-24T04:17:27;15.80;55.60
2439;DHT22;14509;47.992;7.848;2023-04-24T04:19:29;15.70;55.60
2439;DHT22;14509;47.992;7.848;2023-04-24T04:21:33;15.70;55.60
2439;DHT22;14509;47.992;7.848;2023-04-24T04:23:44;15.60;55.50
2439;DHT22;14509;47.992;7.848;2023-04-24T04:25:51;15.60;55.70
2439;DHT22;14509;47.992;7.848;2023-04-24T04:27:57;15.50;55.90
2439;DHT22;14509;47.992;7.848;2023-04-24T04:30:00;15.50;55.90
2439;DHT22;14509;47.992;7.848;2023-04-24T04:32:06;15.50;55.70
2439;DHT22;14509;47.992;7.848;2023-04-24T04:34:09;15.60;55.50
2439;DHT22;14509;47.992;7.848;2023-04-24T04:36:12;15.60;55.30
2439;DHT22;14509;47.992;7.848;2023-04-24T04:38:21;15.60;55.20
2439;DHT22;14509;47.992;7.848;2023-04-24T04:40:31;15.70;55.00
2439;DHT22;14509;47.992;7.848;2023-04-24T04:42:37;15.80;54.60
2439;DHT22;14509;47.992;7.848;2023-04-24T04:44:41;15.80;54.00
2439;DHT22;14509;47.992;7.848;2023-04-24T04:46:48;15.90;53.70
2439;DHT22;14509;47.992;7.848;2023-04-24T04:48:59;16.00;53.70
2439;DHT22;14509;47.992;7.848;2023-04-24T04:51:02;16.00;53.50
2439;DHT22;14509;47.992;7.848;2023-04-24T04:53:04;16.10;53.50
2439;DHT22;14509;47.992;7.848;2023-04-24T04:55:10;16.00;53.20
2439;DHT22;14509;47.992;7.848;2023-04-24T04:57:36;16.00;53.30
2439;DHT22;14509;47.992;7.848;2023-04-24T04:59:39;16.00;53.20
2439;DHT22;14509;47.992;7.848;2023-04-24T05:01:46;16.20;53.20
2439;DHT22;14509;47.992;7.848;2023-04-24T05:03:49;16.10;52.80
2439;DHT22;14509;47.992;7.848;2023-04-24T05:05:52;16.40;52.90
2439;DHT22;14509;47.992;7.848;2023-04-24T05:07:54;16.20;52.70
2439;DHT22;14509;47.992;7.848;2023-04-24T05:09:56;16.20;52.40
2439;DHT22;14509;47.992;7.848;2023-04-24T05:11:59;16.00;52.10
2439;DHT22;14509;47.992;7.848;2023-04-24T05:14:04;16.10;52.40
2439;DHT22;14509;47.992;7.848;2023-04-24T05:16:10;16.50;52.60
2439;DHT22;14509;47.992;7.848;2023-04-24T05:18:12;16.20;52.20
2439;DHT22;14509;47.992;7.848;2023-04-24T05:20:16;16.20;51.90
2439;DHT22;14509;47.992;7.848;2023-04-24T05:22:18;16.20;51.70
2439;DHT22;14509;47.992;7.848;2023-04-24T05:24:25;16.60;52.00
2439;DHT22;14509;47.992;7.848;2023-04-24T05:26:29;16.10;51.90
2439;DHT22;14509;47.992;7.848;2023-04-24T05:28:34;16.10;52.50
2439;DHT22;14509;47.992;7.848;2023-04-24T05:30:41;16.00;52.60
2439;DHT22;14509;47.992;7.848;2023-04-24T05:32:44;15.90;52.60
2439;DHT22;14509;47.992;7.848;2023-04-24T05:34:46;15.80;52.40
2439;DHT22;14509;47.992;7.848;2023-04-24T05:36:48;15.70;52.80
2439;DHT22;14509;47.992;7.848;2023-04-24T05:38:51;15.60;53.40
2439;DHT22;14509;47.992;7.848;2023-04-24T05:40:53;15.50;53.50
2439;DHT22;14509;47.992;7.848;2023-04-24T05:42:55;15.50;54.00
2439;DHT22;14509;47.992;7.848;2023-04-24T05:45:00;15.40;54.10
2439;DHT22;14509;47.992;7.848;2023-04-24T05:47:02;15.60;54.40
2439;DHT22;14509;47.992;7.848;2023-04-24T05:49:04;15.30;53.90
2439;DHT22;14509;47.992;7.848;2023-04-24T05:51:08;15.30;54.00
2439;DHT22;14509;47.992;7.848;2023-04-24T05:53:10;15.40;54.10
2439;DHT22;14509;47.992;7.848;2023-04-24T05:55:12;15.40;53.90
2439;DHT22;14509;47.992;7.848;2023-04-24T05:57:19;15.30;53.70
2439;DHT22;14509;47.992;7.848;2023-04-24T05:59:47;15.30;53.70
2439;DHT22;14509;47.992;7.848;2023-04-24T06:01:51;15.20;53.70
2439;DHT22;14509;47.992;7.848;2023-04-24T06:03:55;15.10;53.70
2439;DHT22;14509;47.992;7.848;2023-04-24T06:05:59;15.00;53.90
2439;DHT22;14509;47.992;7.848;2023-04-24T06:08:01;15.10;53.90
2439;DHT22;14509;47.992;7.848;2023-04-24T06:10:08;15.00;53.80
2439;DHT22;14509;47.992;7.848;2023-04-24T06:12:15;15.10;53.90
2439;DHT22;14509;47.992;7.848;2023-04-24T06:14:30;15.20;53.60
2439;DHT22;14509;47.992;7.848;2023-04-24T06:16:48;15.30;53.50
2439;DHT22;14509;47.992;7.848;2023-04-24T06:19:02;15.50;52.50
2439;DHT22;14509;47.992;7.848;2023-04-24T06:21:04;15.60;51.80
2439;DHT22;14509;47.992;7.848;2023-04-24T06:23:06;15.70;51.60
2439;DHT22;14509;47.992;7.848;2023-04-24T06:25:09;15.80;51.20
2439;DHT22;14509;47.992;7.848;2023-04-24T06:27:11;16.00;50.80
2439;DHT22;14509;47.992;7.848;2023-04-24T06:29:15;16.10;50.40
2439;DHT22;14509;47.992;7.848;2023-04-24T06:31:17;16.20;50.00
2439;DHT22;14509;47.992;7.848;2023-04-24T06:33:19;16.20;49.80
2439;DHT22;14509;47.992;7.848;2023-04-24T06:35:22;16.20;50.00
2439;DHT22;14509;47.992;7.848;2023-04-24T06:37:24;16.30;49.90
2439;DHT22;14509;47.992;7.848;2023-04-24T06:39:26;16.30;50.00
2439;DHT22;14509;47.992;7.848;2023-04-24T06:41:28;16.10;49.70
2439;DHT22;14509;47.992;7.848;2023-04-24T06:43:30;16.00;49.60
2439;DHT22;14509;47.992;7.848;2023-04-24T06:45:32;16.00;49.70
2439;DHT22;14509;47.992;7.848;2023-04-24T06:47:34;16.10;49.80
2439;DHT22;14509;47.992;7.848;2023-04-24T06:49:36;16.10;49.50
2439;DHT22;14509;47.992;7.848;2023-04-24T06:51:40;16.10;49.80
2439;DHT22;14509;47.992;7.848;2023-04-24T06:53:42;16.10;49.70
2439;DHT22;14509;47.992;7.848;2023-04-24T06:55:44;16.10;49.70
2439;DHT22;14509;47.992;7.848;2023-04-24T06:57:46;16.10;50.10
2439;DHT22;14509;47.992;7.848;2023-04-24T06:59:48;16.10;49.70
2439;DHT22;14509;47.992;7.848;2023-04-24T07:01:50;16.20;49.70
2439;DHT22;14509;47.992;7.848;2023-04-24T07:03:52;16.20;48.90
2439;DHT22;14509;47.992;7.848;2023-04-24T07:05:54;16.30;48.60
2439;DHT22;14509;47.992;7.848;2023-04-24T07:07:58;16.50;48.30
2439;DHT22;14509;47.992;7.848;2023-04-24T07:10:00;16.60;47.80
2439;DHT22;14509;47.992;7.848;2023-04-24T07:12:02;16.80;47.30
2439;DHT22;14509;47.992;7.848;2023-04-24T07:14:04;17.00;46.60
2439;DHT22;14509;47.992;7.848;2023-04-24T07:16:06;17.10;45.90
2439;DHT22;14509;47.992;7.848;2023-04-24T07:18:08;17.10;45.70
2439;DHT22;14509;47.992;7.848;2023-04-24T07:20:10;17.10;44.90
2439;DHT22;14509;47.992;7.848;2023-04-24T07:22:12;17.10;44.90
2439;DHT22;14509;47.992;7.848;2023-04-24T07:24:18;17.00;44.60
2439;DHT22;14509;47.992;7.848;2023-04-24T07:26:20;16.90;44.90
2439;DHT22;14509;47.992;7.848;2023-04-24T07:28:22;16.80;45.10
2439;DHT22;14509;47.992;7.848;2023-04-24T07:30:24;16.80;45.40
2439;DHT22;14509;47.992;7.848;2023-04-24T07:32:26;16.80;45.30
2439;DHT22;14509;47.992;7.848;2023-04-24T07:34:28;16.70;44.40
2439;DHT22;14509;47.992;7.848;2023-04-24T07:36:30;16.50;43.10
2439;DHT22;14509;47.992;7.848;2023-04-24T07:38:32;16.50;43.90
2439;DHT22;14509;47.992;7.848;2023-04-24T07:40:36;16.60;44.30
2439;DHT22;14509;47.992;7.848;2023-04-24T07:42:38;16.70;44.20
2439;DHT22;14509;47.992;7.848;2023-04-24T07:44:40;16.80;43.70
2439;DHT22;14509;47.992;7.848;2023-04-24T07:46:42;16.80;43.50
2439;DHT22;14509;47.992;7.848;2023-04-24T07:48:44;16.90;42.80
2439;DHT22;14509;47.992;7.848;2023-04-24T07:50:46;17.20;42.90
2439;DHT22;14509;47.992;7.848;2023-04-24T07:52:48;17.20;41.60
2439;DHT22;14509;47.992;7.848;2023-04-24T07:54:50;17.60;41.40
2439;DHT22;14509;47.992;7.848;2023-04-24T07:57:00;17.80;39.40
2439;DHT22;14509;47.992;7.848;2023-04-24T07:59:02;17.70;39.10
2439;DHT22;14509;47.992;7.848;2023-04-24T08:01:04;17.80;38.70
2439;DHT22;14509;47.992;7.848;2023-04-24T08:03:06;17.90;38.70
2439;DHT22;14509;47.992;7.848;2023-04-24T08:05:08;17.90;38.50
2439;DHT22;14509;47.992;7.848;2023-04-24T08:07:10;18.00;38.50
2439;DHT22;14509;47.992;7.848;2023-04-24T08:09:13;18.10;38.50
2439;DHT22;14509;47.992;7.848;2023-04-24T08:11:15;18.20;39.40
2439;DHT22;14509;47.992;7.848;2023-04-24T08:13:18;18.10;39.20
2439;DHT22;14509;47.992;7.848;2023-04-24T08:15:20;18.00;38.50
2439;DHT22;14509;47.992;7.848;2023-04-24T08:17:23;18.10;38.60
2439;DHT22;14509;47.992;7.848;2023-04-24T08:19:25;18.20;39.00
2439;DHT22;14509;47.992;7.848;2023-04-24T08:21:27;18.30;39.20
2439;DHT22;14509;47.992;7.848;2023-04-24T08:23:29;18.50;39.20
2439;DHT22;14509;47.992;7.848;2023-04-24T08:25:31;18.60;38.50
2439;DHT22;14509;47.992;7.848;2023-04-24T08:27:33;18.70;38.70
2439;DHT22;14509;47.992;7.848;2023-04-24T08:29:38;18.80;38.40
2439;DHT22;14509;47.992;7.848;2023-04-24T08:31:40;18.70;38.70
2439;DHT22;14509;47.992;7.848;2023-04-24T08:33:42;18.80;38.90
2439;DHT22;14509;47.992;7.848;2023-04-24T08:35:46;18.70;38.70
2439;DHT22;14509;47.992;7.848;2023-04-24T08:37:48;18.80;37.90
2439;DHT22;14509;47.992;7.848;2023-04-24T08:39:50;18.80;37.00
2439;DHT22;14509;47.992;7.848;2023-04-24T08:41:52;18.80;35.00
2439;DHT22;14509;47.992;7.848;2023-04-24T08:43:55;18.80;32.80
2439;DHT22;14509;47.992;7.848;2023-04-24T08:46:00;18.50;31.90
2439;DHT22;14509;47.992;7.848;2023-04-24T08:48:02;18.60;32.20
2439;DHT22;14509;47.992;7.848;2023-04-24T08:50:07;18.50;30.60
2439;DHT22;14509;47.992;7.848;2023-04-24T08:52:09;18.30;31.70
2439;DHT22;14509;47.992;7.848;2023-04-24T08:54:13;18.30;31.40
2439;DHT22;14509;47.992;7.848;2023-04-24T08:56:15;18.10;31.00
2439;DHT22;14509;47.992;7.848;2023-04-24T08:58:17;18.10;32.10
2439;DHT22;14509;47.992;7.848;2023-04-24T09:00:21;18.10;32.20
2439;DHT22;14509;47.992;7.848;2023-04-24T09:02:25;18.10;31.90
2439;DHT22;14509;47.992;7.848;2023-04-24T09:04:28;18.30;32.00
2439;DHT22;14509;47.992;7.848;2023-04-24T09:06:31;18.30;31.40
2439;DHT22;14509;47.992;7.848;2023-04-24T09:08:33;18.20;31.10
2439;DHT22;14509;47.992;7.848;2023-04-24T09:10:36;18.30;30.10
2439;DHT22;14509;47.992;7.848;2023-04-24T09:12:38;18.30;30.20
2439;DHT22;14509;47.992;7.848;2023-04-24T09:14:39;18.30;30.00
2439;DHT22;14509;47.992;7.848;2023-04-24T09:16:46;18.30;30.00
2439;DHT22;14509;47.992;7.848;2023-04-24T09:18:49;18.30;30.00
2439;DHT22;14509;47.992;7.848;2023-04-24T09:20:57;18.30;30.20
2439;DHT22;14509;47.992;7.848;2023-04-24T09:22:59;18.40;30.00
2439;DHT22;14509;47.992;7.848;2023-04-24T09:25:05;18.30;29.90
2439;DHT22;14509;47.992;7.848;2023-04-24T09:27:07;18.30;29.20
2439;DHT22;14509;47.992;7.848;2023-04-24T09:29:15;18.00;29.20
2439;DHT22;14509;47.992;7.848;2023-04-24T09:31:18;18.30;30.00
2439;DHT22;14509;47.992;7.848;2023-04-24T09:33:22;17.60;29.90
2439;DHT22;14509;47.992;7.848;2023-04-24T09:35:26;17.60;30.00
2439;DHT22;14509;47.992;7.848;2023-04-24T09:37:28;17.50;30.70
2439;DHT22;14509;47.992;7.848;2023-04-24T09:39:30;17.60;30.60
2439;DHT22;14509;47.992;7.848;2023-04-24T09:41:32;17.80;30.40
2439;DHT22;14509;47.992;7.848;2023-04-24T09:43:35;17.70;30.50
2439;DHT22;14509;47.992;7.848;2023-04-24T09:45:38;17.90;30.90
2439;DHT22;14509;47.992;7.848;2023-04-24T09:47:41;18.30;31.20
2439;DHT22;14509;47.992;7.848;2023-04-24T09:49:43;18.20;31.00
2439;DHT22;14509;47.992;7.848;2023-04-24T09:51:46;18.40;31.20
2439;DHT22;14509;47.992;7.848;2023-04-24T09:53:53;18.60;30.90
2439;DHT22;14509;47.992;7.848;2023-04-24T09:56:02;18.70;30.10
2439;DHT22;14509;47.992;7.848;2023-04-24T09:58:05;18.80;29.60
2439;DHT22;14509;47.992;7.848;2023-04-24T10:00:11;18.90;29.60
2439;DHT22;14509;47.992;7.848;2023-04-24T10:02:17;18.90;29.70
2439;DHT22;14509;47.992;7.848;2023-04-24T10:04:21;18.80;29.70
2439;DHT22;14509;47.992;7.848;2023-04-24T10:06:34;18.60;29.70
2439;DHT22;14509;47.992;7.848;2023-04-24T10:08:37;18.40;29.80
2439;DHT22;14509;47.992;7.848;2023-04-24T10:10:41;18.40;29.40
2439;DHT22;14509;47.992;7.848;2023-04-24T10:12:44;18.60;29.40
2439;DHT22;14509;47.992;7.848;2023-04-24T10:14:46;18.80;28.90
2439;DHT22;14509;47.992;7.848;2023-04-24T10:16:49;19.10;28.60
2439;DHT22;14509;47.992;7.848;2023-04-24T10:18:51;19.40;28.00
2439;DHT22;14509;47.992;7.848;2023-04-24T10:20:54;19.70;27.40
2439;DHT22;14509;47.992;7.848;2023-04-24T10:22:57;20.10;27.10
2439;DHT22;14509;47.992;7.848;2023-04-24T10:25:03;19.90;26.60
2439;DHT22;14509;47.992;7.848;2023-04-24T10:27:06;19.90;27.20
2439;DHT22;14509;47.992;7.848;2023-04-24T10:29:10;19.90;27.30
2439;DHT22;14509;47.992;7.848;2023-04-24T10:31:13;20.00;27.30
2439;DHT22;14509;47.992;7.848;2023-04-24T10:33:16;20.30;27.60
2439;DHT22;14509;47.992;7.848;2023-04-24T10:35:19;20.20;27.30
2439;DHT22;14509;47.992;7.848;2023-04-24T10:37:26;20.30;27.30
2439;DHT22;14509;47.992;7.848;2023-04-24T10:39:28;20.40;27.20
2439;DHT22;14509;47.992;7.848;2023-04-24T10:41:32;20.50;27.40
2439;DHT22;14509;47.992;7.848;2023-04-24T10:43:35;20.70;27.00
2439;DHT22;14509;47.992;7.848;2023-04-24T10:45:38;20.80;26.50
2439;DHT22;14509;47.992;7.848;2023-04-24T10:47:40;20.80;27.10
2439;DHT22;14509;47.992;7.848;2023-04-24T10:49:42;20.90;27.10
2439;DHT22;14509;47.992;7.848;2023-04-24T10:51:46;20.90;27.20
2439;DHT22;14509;47.992;7.848;2023-04-24T10:53:50;21.10;27.40
2439;DHT22;14509;47.992;7.848;2023-04-24T10:55:58;21.20;27.40
2439;DHT22;14509;47.992;7.848;2023-04-24T10:58:04;21.30;26.70
2439;DHT22;14509;47.992;7.848;2023-04-24T11:00:24;21.10;26.20
2439;DHT22;14509;47.992;7.848;2023-04-24T11:02:36;20.90;26.80
2439;DHT22;14509;47.992;7.848;2023-04-24T11:04:38;20.70;27.00
2439;DHT22;14509;47.992;7.848;2023-04-24T11:06:40;20.50;27.40
2439;DHT22;14509;47.992;7.848;2023-04-24T11:08:44;20.40;27.40
2439;DHT22;14509;47.992;7.848;2023-04-24T11:10:54;20.30;27.60
2439;DHT22;14509;47.992;7.848;2023-04-24T11:12:56;19.70;27.80
2439;DHT22;14509;47.992;7.848;2023-04-24T11:15:03;19.50;28.20
2439;DHT22;14509;47.992;7.848;2023-04-24T11:17:05;19.30;28.60
2439;DHT22;14509;47.992;7.848;2023-04-24T11:19:08;19.20;28.70
2439;DHT22;14509;47.992;7.848;2023-04-24T11:21:12;19.30;29.00
2439;DHT22;14509;47.992;7.848;2023-04-24T11:23:14;19.30;29.00
2439;DHT22;14509;47.992;7.848;2023-04-24T11:25:16;19.30;28.80
2439;DHT22;14509;47.992;7.848;2023-04-24T11:27:19;19.30;28.80
2439;DHT22;14509;47.992;7.848;2023-04-24T11:29:22;19.10;28.70
2439;DHT22;14509;47.992;7.848;2023-04-24T11:31:39;18.90;29.20
2439;DHT22;14509;47.992;7.848;2023-04-24T11:33:41;18.90;29.50
2439;DHT22;14509;47.992;7.848;2023-04-24T11:35:43;19.00;29.80
2439;DHT22;14509;47.992;7.848;2023-04-24T11:37:47;19.20;29.50
2439;DHT22;14509;47.992;7.848;2023-04-24T11:39:54;19.30;32.40
2439;DHT22;14509;47.992;7.848;2023-04-24T11:42:02;20.00;29.80
2439;DHT22;14509;47.992;7.848;2023-04-24T11:44:07;19.90;29.10
2439;DHT22;14509;47.992;7.848;2023-04-24T11:46:09;20.10;29.20
2439;DHT22;14509;47.992;7.848;2023-04-24T11:48:18;20.40;28.80
2439;DHT22;14509;47.992;7.848;2023-04-24T11:50:22;20.50;28.30
2439;DHT22;14509;47.992;7.848;2023-04-24T11:52:26;20.50;28.40
2439;DHT22;14509;47.992;7.848;2023-04-24T11:54:28;20.30;28.50
2439;DHT22;14509;47.992;7.848;2023-04-24T11:56:30;20.30;28.50
2439;DHT22;14509;47.992;7.848;2023-04-24T11:58:34;20.20;28.20
2439;DHT22;14509;47.992;7.848;2023-04-24T12:00:36;20.30;28.40
2439;DHT22;14509;47.992;7.848;2023-04-24T12:02:38;20.50;28.70
2439;DHT22;14509;47.992;7.848;2023-04-24T12:04:42;20.60;28.30
2439;DHT22;14509;47.992;7.848;2023-04-24T12:06:59;20.80;28.30
2439;DHT22;14509;47.992;7.848;2023-04-24T12:09:01;20.90;28.20
2439;DHT22;14509;47.992;7.848;2023-04-24T12:11:05;21.00;28.20
2439;DHT22;14509;47.992;7.848;2023-04-24T12:13:09;21.30;28.30
2439;DHT22;14509;47.992;7.848;2023-04-24T12:15:11;21.10;28.30
2439;DHT22;14509;47.992;7.848;2023-04-24T12:17:14;21.10;28.30
2439;DHT22;14509;47.992;7.848;2023-04-24T12:19:18;21.20;28.50
2439;DHT22;14509;47.992;7.848;2023-04-24T12:21:23;21.20;28.40
2439;DHT22;14509;47.992;7.848;2023-04-24T12:23:36;21.20;28.60
2439;DHT22;14509;47.992;7.848;2023-04-24T12:25:39;21.40;28.20
2439;DHT22;14509;47.992;7.848;2023-04-24T12:27:41;21.50;28.10
2439;DHT22;14509;47.992;7.848;2023-04-24T12:29:52;21.50;28.30
2439;DHT22;14509;47.992;7.848;2023-04-24T12:31:54;21.40;28.30
2439;DHT22;14509;47.992;7.848;2023-04-24T12:33:56;21.20;28.30
2439;DHT22;14509;47.992;7.848;2023-04-24T12:35:59;20.90;28.40
2439;DHT22;14509;47.992;7.848;2023-04-24T12:38:07;20.70;28.90
2439;DHT22;14509;47.992;7.848;2023-04-24T12:40:10;20.40;29.00
2439;DHT22;14509;47.992;7.848;2023-04-24T12:42:13;20.30;29.30
2439;DHT22;14509;47.992;7.848;2023-04-24T12:44:14;20.20;29.50
2439;DHT22;14509;47.992;7.848;2023-04-24T12:46:16;20.00;29.00
2439;DHT22;14509;47.992;7.848;2023-04-24T12:48:18;20.00;29.60
2439;DHT22;14509;47.992;7.848;2023-04-24T12:50:20;20.00;29.50
2439;DHT22;14509;47.992;7.848;2023-04-24T12:52:23;20.10;29.40
2439;DHT22;14509;47.992;7.848;2023-04-24T12:54:32;19.70;29.50
2439;DHT22;14509;47.992;7.848;2023-04-24T12:56:34;19.90;29.90
2439;DHT22;14509;47.992;7.848;2023-04-24T12:58:39;20.10;29.70
2439;DHT22;14509;47.992;7.848;2023-04-24T13:00:41;20.30;29.60
2439;DHT22;14509;47.992;7.848;2023-04-24T13:02:46;20.40;29.40
2439;DHT22;14509;47.992;7.848;2023-04-24T13:04:48;20.60;29.40
2439;DHT22;14509;47.992;7.848;2023-04-24T13:06:51;20.60;29.30
2439;DHT22;14509;47.992;7.848;2023-04-24T13:08:52;20.90;29.20
2439;DHT22;14509;47.992;7.848;2023-04-24T13:10:56;21.40;28.20
2439;DHT22;14509;47.992;7.848;2023-04-24T13:12:59;21.50;27.70
2439;DHT22;14509;47.992;7.848;2023-04-24T13:15:01;21.90;27.80